createdAt,value
2023-03-01T00:06:10.714Z,100941.96
2023-03-01T00:08:53.380Z,100928.48
2023-03-01T01:01:01.911Z,100842.31
2023-03-01T01:03:30.957Z,100835.81
2023-03-01T01:19:41.819Z,100833.48
2023-03-01T01:28:49.298Z,100821.17
2023-03-01T01:31:18.629Z,100819.14
2023-03-01T01:34:03.795Z,100816.89
2023-03-01T01:36:50.200Z,100814.86
2023-03-01T01:39:23.935Z,100814.86
2023-03-01T01:41:55.573Z,100814.98
2023-03-01T01:44:42.617Z,100801.95
2023-03-01T01:47:36.889Z,100793.52
2023-03-01T01:50:06.286Z,100790.17
2023-03-01T01:55:32.733Z,100784.48
2023-03-01T01:58:09.317Z,100777.95
2023-03-01T02:00:41.774Z,100778.11
2023-03-01T02:03:34.820Z,100767.23
2023-03-01T02:09:28.008Z,100760.64
2023-03-01T02:12:16.501Z,100761.58
2023-03-01T02:15:09.030Z,100758.81
2023-03-01T02:17:59.101Z,100758.39
2023-03-01T02:20:50.334Z,100749.20
2023-03-01T02:23:41.776Z,100746.83
2023-03-01T03:06:55.009Z,100684.16
2023-03-01T03:09:37.347Z,100689.21
2023-03-01T03:12:10.454Z,100693.77
2023-03-01T03:14:59.263Z,100693.16
2023-03-01T03:17:32.770Z,100695.06
2023-03-01T03:20:04.582Z,100695.34
2023-03-01T03:28:04.184Z,100698.60
2023-03-01T03:31:13.083Z,100698.63
2023-03-01T03:39:19.224Z,100686.79
2023-03-01T03:41:49.936Z,100685.17
2023-03-01T03:44:29.449Z,100685.98
2023-03-01T03:47:01.160Z,100686.69
2023-03-01T03:49:28.209Z,100684.33
2023-03-01T03:52:02.058Z,100681.56
2023-03-01T03:54:44.744Z,100673.74
2023-03-01T04:11:23.098Z,100668.25
2023-03-01T04:14:02.487Z,100663.11
2023-03-01T04:16:32.658Z,100661.21
2023-03-01T04:19:03.422Z,100669.13
2023-03-01T04:21:45.734Z,100665.64
2023-03-01T04:38:08.904Z,100650.64
2023-03-01T05:25:26.508Z,100673.23
2023-03-01T05:28:12.937Z,100663.95
2023-03-01T06:35:31.662Z,100699.21
2023-03-01T06:38:02.122Z,100703.60
2023-03-01T06:40:58.096Z,100695.86
2023-03-01T06:44:10.336Z,100697.97
2023-03-01T06:46:58.410Z,100693.48
2023-03-01T06:49:48.723Z,100696.29
2023-03-01T06:58:06.131Z,100695.05
2023-03-01T07:06:25.116Z,100690.41
2023-03-01T07:08:55.792Z,100689.52
2023-03-01T07:11:44.713Z,100694.55
2023-03-01T07:14:30.505Z,100689.29
2023-03-01T07:17:14.549Z,100696.70
2023-03-01T07:19:48.499Z,100693.85
2023-03-01T07:43:09.812Z,100697.66
2023-03-01T07:46:21.331Z,100690.02
2023-03-01T07:49:08.857Z,100690.88
2023-03-01T07:51:38.398Z,100696.61
2023-03-01T07:54:07.232Z,100696.77
2023-03-01T07:56:55.892Z,100693.80
2023-03-01T08:04:41.276Z,100694.79
2023-03-01T08:07:09.287Z,100694.43
2023-03-01T08:09:40.318Z,100694.84
2023-03-01T08:15:11.252Z,100695.91
2023-03-01T08:17:54.307Z,100700.15
2023-03-01T08:20:41.512Z,100697.33
2023-03-01T08:23:31.427Z,100686.04
2023-03-01T08:26:38.744Z,100683.18
2023-03-01T08:32:24.425Z,100680.55
2023-03-01T08:35:07.561Z,100684.33
2023-03-01T08:40:30.423Z,100684.52
2023-03-01T08:43:02.402Z,100694.13
2023-03-01T08:45:30.992Z,100690.38
2023-03-01T08:48:18.901Z,100688.05
2023-03-01T08:50:46.299Z,100691.92
2023-03-01T08:53:13.872Z,100694.58
2023-03-01T08:56:03.184Z,100695.70
2023-03-01T08:58:31.060Z,100697.52
2023-03-01T09:01:19.023Z,100696.02
2023-03-01T09:03:46.676Z,100704.14
2023-03-01T09:06:15.461Z,100708.83
2023-03-01T09:08:53.599Z,100709.88
2023-03-01T09:11:44.573Z,100710.52
2023-03-01T09:14:17.403Z,100708.83
2023-03-01T09:16:46.134Z,100712.57
2023-03-01T09:22:15.953Z,100709.10
2023-03-01T09:25:00.532Z,100704.93
2023-03-01T09:27:34.580Z,100704.71
2023-03-01T09:30:02.741Z,100701.95
2023-03-01T09:32:50.230Z,100705.19
2023-03-01T09:35:38.240Z,100706.58
2023-03-01T09:38:21.071Z,100710.81
2023-03-01T09:47:28.128Z,100715.05
2023-03-01T09:50:00.693Z,100715.69
2023-03-01T09:52:39.955Z,100718.65
2023-03-01T09:58:36.223Z,100712.05
2023-03-01T10:01:08.037Z,100704.25
2023-03-01T10:04:00.652Z,100709.38
2023-03-01T10:06:35.745Z,100706.74
2023-03-01T10:09:08.695Z,100701.63
2023-03-01T10:11:39.472Z,100698.06
2023-03-01T10:20:57.804Z,100710.04
2023-03-01T10:23:46.059Z,100707.23
2023-03-01T10:26:34.924Z,100704.91
2023-03-01T10:29:22.788Z,100706.45
2023-03-01T10:32:18.816Z,100695.31
2023-03-01T10:34:46.425Z,100697.16
2023-03-01T10:40:59.207Z,100698.72
2023-03-01T10:43:50.644Z,100694.24
2023-03-01T10:46:37.567Z,100694.78
2023-03-01T10:49:27.240Z,100695.90
2023-03-01T10:52:01.210Z,100690.80
2023-03-01T10:54:45.625Z,100694.09
2023-03-01T10:57:41.330Z,100696.98
2023-03-01T11:00:26.275Z,100701.64
2023-03-01T11:02:59.821Z,100700.77
2023-03-01T11:05:30.725Z,100698.28
2023-03-01T11:07:59.281Z,100696.16
2023-03-01T11:14:01.393Z,100692.55
2023-03-01T11:20:15.235Z,100698.89
2023-03-01T11:22:57.265Z,100700.20
2023-03-01T11:25:27.366Z,100702.35
2023-03-01T11:28:15.972Z,100703.80
2023-03-01T11:31:20.876Z,100696.08
2023-03-01T11:49:13.408Z,100695.23
2023-03-01T11:51:57.668Z,100694.60
2023-03-01T11:54:42.159Z,100698.33
2023-03-01T11:57:15.025Z,100695.58
2023-03-01T11:59:59.783Z,100702.42
2023-03-01T12:02:34.062Z,100694.09
2023-03-01T12:05:15.559Z,100698.34
2023-03-01T12:07:53.903Z,100691.61
2023-03-01T12:10:21.969Z,100691.73
2023-03-01T12:12:59.977Z,100688.00
2023-03-01T12:15:40.975Z,100688.29
2023-03-01T12:18:13.733Z,100686.92
2023-03-01T12:20:43.414Z,100693.03
2023-03-01T12:23:28.596Z,100692.18
2023-03-01T12:26:19.302Z,100694.64
2023-03-01T12:28:53.259Z,100690.80
2023-03-01T12:31:36.589Z,100694.64
2023-03-01T12:34:25.064Z,100693.69
2023-03-01T12:37:11.207Z,100696.13
2023-03-01T12:39:57.801Z,100701.02
2023-03-01T12:42:28.299Z,100697.34
2023-03-01T12:45:27.616Z,100700.68
2023-03-01T12:48:18.932Z,100704.06
2023-03-01T12:50:53.599Z,100700.42
2023-03-01T12:53:21.552Z,100703.70
2023-03-01T12:55:49.426Z,100706.64
2023-03-01T12:58:47.465Z,100704.05
2023-03-01T13:01:40.104Z,100707.70
2023-03-01T13:04:08.516Z,100706.21
2023-03-01T13:06:43.690Z,100704.76
2023-03-01T13:09:19.260Z,100707.52
2023-03-01T13:11:47.633Z,100706.55
2023-03-01T13:14:24.131Z,100710.50
2023-03-01T13:16:55.117Z,100708.77
2023-03-01T13:19:23.979Z,100707.15
2023-03-01T13:21:55.784Z,100707.15
2023-03-01T13:24:25.619Z,100710.46
2023-03-01T13:27:11.989Z,100704.25
2023-03-01T13:29:49.326Z,100707.46
2023-03-01T13:32:23.538Z,100705.80
2023-03-01T13:34:54.085Z,100705.39
2023-03-01T13:37:41.134Z,100705.71
2023-03-01T13:40:23.666Z,100701.33
2023-03-01T13:43:04.670Z,100698.96
2023-03-01T13:45:33.676Z,100699.16
2023-03-01T13:48:04.709Z,100701.13
2023-03-01T13:50:35.025Z,100705.48
2023-03-01T13:53:05.478Z,100706.34
2023-03-01T13:55:34.886Z,100703.68
2023-03-01T13:58:04.710Z,100698.09
2023-03-01T14:00:37.806Z,100700.59
2023-03-01T14:03:10.236Z,100699.03
2023-03-01T14:05:39.910Z,100699.86
2023-03-01T14:08:21.467Z,100698.20
2023-03-01T14:10:54.864Z,100705.76
2023-03-01T14:13:30.782Z,100706.58
2023-03-01T14:16:00.720Z,100705.20
2023-03-01T14:18:59.941Z,100708.95
2023-03-01T14:21:27.508Z,100704.08
2023-03-01T14:23:55.492Z,100704.84
2023-03-01T14:26:23.348Z,100709.70
2023-03-01T14:28:51.340Z,100710.05
2023-03-01T14:31:33.007Z,100708.02
2023-03-01T14:34:04.324Z,100705.39
2023-03-01T14:36:33.819Z,100704.95
2023-03-01T14:39:06.376Z,100701.83
2023-03-01T14:41:37.817Z,100706.14
2023-03-01T14:44:24.066Z,100702.23
2023-03-01T14:46:58.307Z,100698.98
2023-03-01T14:49:31.463Z,100696.57
2023-03-01T14:52:09.169Z,100698.16
2023-03-01T14:54:50.929Z,100698.45
2023-03-01T14:57:22.424Z,100701.79
2023-03-01T14:59:51.523Z,100700.29
2023-03-01T15:02:20.085Z,100701.48
2023-03-01T15:04:57.594Z,100699.98
2023-03-01T15:07:27.210Z,100700.27
2023-03-01T15:09:55.308Z,100702.77
2023-03-01T15:12:26.557Z,100700.86
2023-03-01T15:15:03.334Z,100698.29
2023-03-01T15:17:36.834Z,100699.10
2023-03-01T15:20:07.082Z,100701.63
2023-03-01T15:22:34.826Z,100701.11
2023-03-01T15:25:02.986Z,100702.98
2023-03-01T15:27:31.018Z,100703.60
2023-03-01T15:30:00.405Z,100705.31
2023-03-01T15:32:31.414Z,100706.80
2023-03-01T15:34:59.497Z,100707.52
2023-03-01T15:37:38.924Z,100701.38
2023-03-01T15:40:20.348Z,100705.34
2023-03-01T15:42:49.845Z,100707.80
2023-03-01T15:45:21.634Z,100720.37
2023-03-01T15:47:54.927Z,100717.68
2023-03-01T15:50:24.142Z,100713.02
2023-03-01T15:52:53.024Z,100716.90
2023-03-01T15:55:21.169Z,100717.05
2023-03-01T15:57:50.869Z,100716.05
2023-03-01T16:00:19.869Z,100715.73
2023-03-01T16:02:48.198Z,100713.40
2023-03-01T16:05:20.102Z,100715.60
2023-03-01T16:07:48.078Z,100717.40
2023-03-01T16:10:16.742Z,100723.07
2023-03-01T16:12:48.498Z,100723.73
2023-03-01T16:15:18.086Z,100724.15
2023-03-01T16:17:45.833Z,100727.57
2023-03-01T16:20:27.180Z,100731.76
2023-03-01T16:23:03.639Z,100728.84
2023-03-01T16:25:33.192Z,100727.83
2023-03-01T16:28:09.892Z,100733.81
2023-03-01T16:30:40.741Z,100735.52
2023-03-01T16:33:24.448Z,100740.23
2023-03-01T16:35:57.687Z,100740.55
2023-03-01T16:38:26.448Z,100740.98
2023-03-01T16:40:54.241Z,100748.89
2023-03-01T16:43:23.084Z,100751.83
2023-03-01T16:45:51.900Z,100748.96
2023-03-01T16:48:21.598Z,100747.40
2023-03-01T16:50:57.616Z,100746.77
2023-03-01T16:53:47.529Z,100747.61
2023-03-01T16:56:30.001Z,100750.02
2023-03-01T16:59:01.657Z,100753.67
2023-03-01T17:01:40.983Z,100755.92
2023-03-01T17:04:12.786Z,100758.27
2023-03-01T17:06:43.594Z,100755.84
2023-03-01T17:09:13.848Z,100757.95
2023-03-01T17:11:45.221Z,100757.68
2023-03-01T17:14:13.095Z,100755.27
2023-03-01T17:16:43.448Z,100758.41
2023-03-01T17:19:12.291Z,100754.56
2023-03-01T17:21:42.640Z,100756.00
2023-03-01T17:24:10.183Z,100756.95
2023-03-01T17:26:39.158Z,100760.44
2023-03-01T17:29:08.485Z,100756.05
2023-03-01T17:31:39.472Z,100753.58
2023-03-01T17:34:09.788Z,100753.94
2023-03-01T17:36:43.976Z,100750.13
2023-03-01T17:39:12.285Z,100750.85
2023-03-01T17:41:41.195Z,100750.77
2023-03-01T17:44:24.276Z,100757.55
2023-03-01T17:46:51.815Z,100753.35
2023-03-01T17:49:26.366Z,100759.68
2023-03-01T17:51:58.710Z,100757.11
2023-03-01T17:54:29.440Z,100757.37
2023-03-01T17:56:58.856Z,100759.27
2023-03-01T17:59:37.163Z,100760.15
2023-03-01T18:02:06.571Z,100756.78
2023-03-01T18:04:34.517Z,100759.98
2023-03-01T18:07:03.095Z,100758.73
2023-03-01T18:09:31.344Z,100763.45
2023-03-01T18:12:00.293Z,100768.60
2023-03-01T18:14:33.920Z,100773.45
2023-03-01T18:17:06.796Z,100776.66
2023-03-01T18:19:43.783Z,100775.21
2023-03-01T18:22:11.315Z,100779.14
2023-03-01T18:24:41.027Z,100781.52
2023-03-01T18:27:09.322Z,100782.64
2023-03-01T18:29:37.718Z,100782.30
2023-03-01T18:32:06.065Z,100783.17
2023-03-01T18:34:34.875Z,100781.54
2023-03-01T18:37:09.485Z,100787.39
2023-03-01T18:39:41.914Z,100784.48
2023-03-01T18:42:19.051Z,100790.27
2023-03-01T18:47:44.294Z,100797.08
2023-03-01T18:50:14.799Z,100797.60
2023-03-01T18:52:42.501Z,100796.66
2023-03-01T18:55:11.641Z,100797.23
2023-03-01T18:57:41.352Z,100798.63
2023-03-01T19:00:09.836Z,100801.70
2023-03-01T19:02:39.596Z,100804.95
2023-03-01T19:05:09.296Z,100802.86
2023-03-01T19:07:37.435Z,100805.74
2023-03-01T19:10:07.773Z,100804.43
2023-03-01T19:12:35.705Z,100808.29
2023-03-01T19:15:04.498Z,100807.23
2023-03-01T19:17:33.625Z,100808.31
2023-03-01T19:20:01.436Z,100811.42
2023-03-01T19:22:29.260Z,100812.88
2023-03-01T19:25:02.132Z,100813.52
2023-03-01T19:27:31.060Z,100809.98
2023-03-01T19:30:01.841Z,100808.67
2023-03-01T19:32:30.542Z,100814.92
2023-03-01T19:35:00.874Z,100815.38
2023-03-01T19:37:30.377Z,100811.02
2023-03-01T19:40:00.541Z,100815.48
2023-03-01T19:42:30.278Z,100822.54
2023-03-01T19:45:00.322Z,100827.31
2023-03-01T19:47:28.563Z,100825.80
2023-03-01T19:49:56.426Z,100823.02
2023-03-01T19:52:25.389Z,100823.89
2023-03-01T19:55:03.863Z,100818.14
2023-03-01T19:57:40.864Z,100821.27
2023-03-01T20:00:25.582Z,100821.20
2023-03-01T20:02:54.626Z,100822.67
2023-03-01T20:05:22.090Z,100821.46
2023-03-01T20:07:54.480Z,100825.73
2023-03-01T20:10:23.185Z,100821.74
2023-03-01T20:12:50.965Z,100819.80
2023-03-01T20:15:22.990Z,100818.33
2023-03-01T20:17:53.111Z,100816.99
2023-03-01T20:20:32.141Z,100815.55
2023-03-01T20:23:00.580Z,100817.77
2023-03-01T20:25:28.091Z,100814.39
2023-03-01T20:27:56.552Z,100812.03
2023-03-01T20:30:24.544Z,100812.58
2023-03-01T20:32:56.484Z,100805.96
2023-03-01T20:35:23.919Z,100801.95
2023-03-01T20:37:52.692Z,100806.23
2023-03-01T20:40:26.704Z,100809.64
2023-03-01T20:42:58.393Z,100812.17
2023-03-01T20:45:28.188Z,100804.11
2023-03-01T20:47:55.942Z,100807.92
2023-03-01T20:50:24.109Z,100803.71
2023-03-01T20:52:53.208Z,100803.70
2023-03-01T20:55:20.848Z,100801.81
2023-03-01T20:57:48.420Z,100796.81
2023-03-01T21:00:17.648Z,100795.44
2023-03-01T21:02:45.304Z,100791.98
2023-03-01T21:05:13.725Z,100798.73
2023-03-01T21:07:42.713Z,100798.15
2023-03-01T21:10:11.227Z,100798.92
2023-03-01T21:12:39.162Z,100793.40
2023-03-01T21:15:08.618Z,100793.49
2023-03-01T21:17:40.104Z,100794.85
2023-03-01T21:20:08.425Z,100795.28
2023-03-01T21:22:36.861Z,100792.91
2023-03-01T21:25:06.250Z,100788.90
2023-03-01T21:27:38.345Z,100788.07
2023-03-01T21:30:06.719Z,100794.48
2023-03-01T21:32:34.453Z,100795.84
2023-03-01T21:35:02.212Z,100790.29
2023-03-01T21:37:31.188Z,100788.85
2023-03-01T21:39:58.809Z,100789.45
2023-03-01T21:42:27.534Z,100794.69
2023-03-01T21:44:55.049Z,100794.33
2023-03-01T21:47:22.434Z,100791.16
2023-03-01T21:49:50.253Z,100792.16
2023-03-01T21:52:18.049Z,100787.89
2023-03-01T21:54:46.542Z,100788.21
2023-03-01T21:57:14.151Z,100788.45
2023-03-01T21:59:46.717Z,100794.60
2023-03-01T22:02:14.419Z,100796.41
2023-03-01T22:04:43.173Z,100790.70
2023-03-01T22:07:10.795Z,100785.29
2023-03-01T22:09:38.844Z,100786.29
2023-03-01T22:12:06.932Z,100791.59
2023-03-01T22:14:34.744Z,100788.97
2023-03-01T22:17:02.381Z,100792.89
2023-03-01T22:19:32.446Z,100790.26
2023-03-01T22:21:59.934Z,100792.95
2023-03-01T22:24:28.893Z,100792.61
2023-03-01T22:26:58.012Z,100788.64
2023-03-01T22:29:29.003Z,100791.73
2023-03-01T22:31:56.670Z,100793.16
2023-03-01T22:34:24.213Z,100789.73
2023-03-01T22:36:53.097Z,100793.30
2023-03-01T22:39:25.317Z,100793.70
2023-03-01T22:41:54.161Z,100791.86
2023-03-01T22:44:23.405Z,100789.95
2023-03-01T22:46:53.356Z,100790.56
2023-03-01T22:49:22.335Z,100784.67
2023-03-01T22:51:50.888Z,100785.75
2023-03-01T22:54:18.921Z,100779.82
2023-03-01T22:56:48.324Z,100774.59
2023-03-01T22:59:20.225Z,100777.64
2023-03-01T23:01:48.576Z,100782.20
2023-03-01T23:04:18.496Z,100780.84
2023-03-01T23:06:53.703Z,100784.09
2023-03-01T23:09:21.577Z,100783.85
2023-03-01T23:11:51.511Z,100781.47
2023-03-01T23:14:19.488Z,100780.14
2023-03-01T23:16:49.076Z,100775.77
2023-03-01T23:19:19.489Z,100776.30
2023-03-01T23:21:50.317Z,100774.06
2023-03-01T23:24:20.080Z,100778.08
2023-03-01T23:26:54.003Z,100777.58
2023-03-01T23:29:21.937Z,100785.09
2023-03-01T23:31:49.718Z,100781.94
2023-03-01T23:34:17.535Z,100783.27
2023-03-01T23:36:45.934Z,100781.27
2023-03-01T23:39:13.618Z,100780.42
2023-03-01T23:41:41.325Z,100774.84
2023-03-01T23:44:44.570Z,100772.84
2023-03-01T23:47:32.067Z,100774.53
2023-03-01T23:50:03.155Z,100772.47
2023-03-01T23:52:32.528Z,100765.05
2023-03-01T23:55:02.642Z,100763.64
2023-03-01T23:57:33.948Z,100758.02
